sensor_id;sensor_type;location;lat;lon;timestamp;P1;durP1;ratioP1;P2;durP2;ratioP2
51184;SDS011;37248;59.350;18.050;2023-05-16T00:01:48;5.33;;;2.67;;
51184;SDS011;37248;59.350;18.050;2023-05-16T00:04:14;12.03;;;2.67;;
51184;SDS011;37248;59.350;18.050;2023-05-16T00:06:40;6.93;;;2.45;;
51184;SDS011;37248;59.350;18.050;2023-05-16T00:09:05;6.83;;;2.43;;
51184;SDS011;37248;59.350;18.050;2023-05-16T00:11:31;6.63;;;2.20;;
51184;SDS011;37248;59.350;18.050;2023-05-16T00:13:56;9.17;;;2.40;;
51184;SDS011;37248;59.350;18.050;2023-05-16T00:16:21;6.30;;;2.00;;
51184;SDS011;37248;59.350;18.050;2023-05-16T00:18:49;7.25;;;2.60;;
51184;SDS011;37248;59.350;18.050;2023-05-16T00:21:14;7.10;;;2.20;;
51184;SDS011;37248;59.350;18.050;2023-05-16T00:23:40;5.53;;;2.50;;
51184;SDS011;37248;59.350;18.050;2023-05-16T00:26:06;6.30;;;2.80;;
51184;SDS011;37248;59.350;18.050;2023-05-16T00:28:31;6.43;;;2.40;;
51184;SDS011;37248;59.350;18.050;2023-05-16T00:30:56;10.50;;;2.17;;
51184;SDS011;37248;59.350;18.050;2023-05-16T00:33:21;4.20;;;2.37;;
51184;SDS011;37248;59.350;18.050;2023-05-16T00:35:46;6.20;;;2.17;;
51184;SDS011;37248;59.350;18.050;2023-05-16T00:38:13;4.95;;;2.42;;
51184;SDS011;37248;59.350;18.050;2023-05-16T00:40:38;3.60;;;2.00;;
51184;SDS011;37248;59.350;18.050;2023-05-16T00:43:04;3.33;;;1.95;;
51184;SDS011;37248;59.350;18.050;2023-05-16T00:45:30;4.15;;;2.10;;
51184;SDS011;37248;59.350;18.050;2023-05-16T00:47:55;4.77;;;2.40;;
51184;SDS011;37248;59.350;18.050;2023-05-16T00:50:20;5.13;;;2.22;;
51184;SDS011;37248;59.350;18.050;2023-05-16T00:52:46;7.07;;;2.40;;
51184;SDS011;37248;59.350;18.050;2023-05-16T00:55:11;4.72;;;2.17;;
51184;SDS011;37248;59.350;18.050;2023-05-16T00:57:37;4.78;;;2.33;;
51184;SDS011;37248;59.350;18.050;2023-05-16T01:00:05;4.33;;;2.37;;
51184;SDS011;37248;59.350;18.050;2023-05-16T01:02:31;5.50;;;2.20;;
51184;SDS011;37248;59.350;18.050;2023-05-16T01:04:56;6.50;;;2.60;;
51184;SDS011;37248;59.350;18.050;2023-05-16T01:07:22;4.80;;;2.00;;
51184;SDS011;37248;59.350;18.050;2023-05-16T01:09:47;7.80;;;2.50;;
51184;SDS011;37248;59.350;18.050;2023-05-16T01:15:12;4.47;;;2.10;;
51184;SDS011;37248;59.350;18.050;2023-05-16T01:20:27;7.63;;;2.40;;
51184;SDS011;37248;59.350;18.050;2023-05-16T01:23:03;4.78;;;2.03;;
51184;SDS011;37248;59.350;18.050;2023-05-16T01:28:00;12.30;;;2.72;;
51184;SDS011;37248;59.350;18.050;2023-05-16T01:30:30;6.13;;;2.03;;
51184;SDS011;37248;59.350;18.050;2023-05-16T01:32:56;6.40;;;2.50;;
51184;SDS011;37248;59.350;18.050;2023-05-16T01:35:21;6.50;;;2.30;;
51184;SDS011;37248;59.350;18.050;2023-05-16T01:40:16;7.15;;;2.50;;
51184;SDS011;37248;59.350;18.050;2023-05-16T01:42:45;5.95;;;2.40;;
51184;SDS011;37248;59.350;18.050;2023-05-16T01:45:13;9.13;;;2.40;;
51184;SDS011;37248;59.350;18.050;2023-05-16T01:47:42;5.70;;;2.50;;
51184;SDS011;37248;59.350;18.050;2023-05-16T01:50:09;6.25;;;2.00;;
51184;SDS011;37248;59.350;18.050;2023-05-16T01:52:39;7.95;;;2.03;;
51184;SDS011;37248;59.350;18.050;2023-05-16T01:55:09;5.18;;;2.00;;
51184;SDS011;37248;59.350;18.050;2023-05-16T01:57:35;7.80;;;2.28;;
51184;SDS011;37248;59.350;18.050;2023-05-16T02:00:00;6.47;;;2.33;;
51184;SDS011;37248;59.350;18.050;2023-05-16T02:02:26;10.13;;;2.57;;
51184;SDS011;37248;59.350;18.050;2023-05-16T02:04:51;4.07;;;2.10;;
51184;SDS011;37248;59.350;18.050;2023-05-16T02:07:16;4.85;;;2.30;;
51184;SDS011;37248;59.350;18.050;2023-05-16T02:09:42;3.83;;;2.23;;
51184;SDS011;37248;59.350;18.050;2023-05-16T02:12:07;4.37;;;1.83;;
51184;SDS011;37248;59.350;18.050;2023-05-16T02:14:32;5.33;;;2.30;;
51184;SDS011;37248;59.350;18.050;2023-05-16T02:16:58;4.17;;;2.43;;
51184;SDS011;37248;59.350;18.050;2023-05-16T02:19:23;3.80;;;2.27;;
51184;SDS011;37248;59.350;18.050;2023-05-16T02:21:48;5.93;;;2.00;;
51184;SDS011;37248;59.350;18.050;2023-05-16T02:24:14;3.00;;;2.05;;
51184;SDS011;37248;59.350;18.050;2023-05-16T02:26:39;4.03;;;2.17;;
51184;SDS011;37248;59.350;18.050;2023-05-16T02:29:05;6.57;;;1.83;;
51184;SDS011;37248;59.350;18.050;2023-05-16T02:31:31;4.68;;;2.30;;
51184;SDS011;37248;59.350;18.050;2023-05-16T02:33:56;6.00;;;2.17;;
51184;SDS011;37248;59.350;18.050;2023-05-16T02:36:22;7.10;;;1.98;;
51184;SDS011;37248;59.350;18.050;2023-05-16T02:38:48;9.97;;;2.57;;
51184;SDS011;37248;59.350;18.050;2023-05-16T02:41:13;8.50;;;2.50;;
51184;SDS011;37248;59.350;18.050;2023-05-16T02:43:38;13.23;;;2.57;;
51184;SDS011;37248;59.350;18.050;2023-05-16T02:46:03;10.47;;;2.40;;
51184;SDS011;37248;59.350;18.050;2023-05-16T02:48:29;8.93;;;2.40;;
51184;SDS011;37248;59.350;18.050;2023-05-16T02:50:54;8.37;;;2.40;;
51184;SDS011;37248;59.350;18.050;2023-05-16T02:53:19;6.80;;;2.20;;
51184;SDS011;37248;59.350;18.050;2023-05-16T02:55:45;5.30;;;2.13;;
51184;SDS011;37248;59.350;18.050;2023-05-16T02:58:10;8.60;;;2.27;;
51184;SDS011;37248;59.350;18.050;2023-05-16T03:00:36;6.73;;;1.87;;
51184;SDS011;37248;59.350;18.050;2023-05-16T03:03:01;5.70;;;2.40;;
51184;SDS011;37248;59.350;18.050;2023-05-16T03:05:26;3.53;;;1.93;;
51184;SDS011;37248;59.350;18.050;2023-05-16T03:07:51;3.17;;;2.00;;
51184;SDS011;37248;59.350;18.050;2023-05-16T03:10:17;7.67;;;2.30;;
51184;SDS011;37248;59.350;18.050;2023-05-16T03:12:42;9.83;;;2.23;;
51184;SDS011;37248;59.350;18.050;2023-05-16T03:15:07;4.40;;;1.80;;
51184;SDS011;37248;59.350;18.050;2023-05-16T03:17:33;4.27;;;2.20;;
51184;SDS011;37248;59.350;18.050;2023-05-16T03:19:58;4.87;;;2.40;;
51184;SDS011;37248;59.350;18.050;2023-05-16T03:22:24;4.93;;;2.00;;
51184;SDS011;37248;59.350;18.050;2023-05-16T03:24:49;3.30;;;1.90;;
51184;SDS011;37248;59.350;18.050;2023-05-16T03:27:14;5.67;;;2.00;;
51184;SDS011;37248;59.350;18.050;2023-05-16T03:29:39;9.10;;;2.40;;
51184;SDS011;37248;59.350;18.050;2023-05-16T03:32:05;3.85;;;2.05;;
51184;SDS011;37248;59.350;18.050;2023-05-16T03:34:30;5.00;;;1.97;;
51184;SDS011;37248;59.350;18.050;2023-05-16T03:36:55;3.27;;;1.80;;
51184;SDS011;37248;59.350;18.050;2023-05-16T03:39:21;6.20;;;1.90;;
51184;SDS011;37248;59.350;18.050;2023-05-16T03:41:46;9.13;;;2.20;;
51184;SDS011;37248;59.350;18.050;2023-05-16T03:44:11;7.15;;;2.20;;
51184;SDS011;37248;59.350;18.050;2023-05-16T03:46:37;5.10;;;2.10;;
51184;SDS011;37248;59.350;18.050;2023-05-16T03:49:02;4.67;;;1.80;;
51184;SDS011;37248;59.350;18.050;2023-05-16T03:51:27;2.70;;;1.80;;
51184;SDS011;37248;59.350;18.050;2023-05-16T03:53:54;3.00;;;2.13;;
51184;SDS011;37248;59.350;18.050;2023-05-16T03:56:20;4.10;;;1.92;;
51184;SDS011;37248;59.350;18.050;2023-05-16T03:58:45;4.00;;;1.80;;
51184;SDS011;37248;59.350;18.050;2023-05-16T04:01:11;4.78;;;1.90;;
51184;SDS011;37248;59.350;18.050;2023-05-16T04:03:36;3.10;;;2.00;;
51184;SDS011;37248;59.350;18.050;2023-05-16T04:06:02;7.77;;;1.93;;
51184;SDS011;37248;59.350;18.050;2023-05-16T04:08:27;5.00;;;2.13;;
51184;SDS011;37248;59.350;18.050;2023-05-16T04:10:53;5.80;;;2.00;;
51184;SDS011;37248;59.350;18.050;2023-05-16T04:13:18;8.80;;;2.17;;
51184;SDS011;37248;59.350;18.050;2023-05-16T04:15:43;9.07;;;2.40;;
51184;SDS011;37248;59.350;18.050;2023-05-16T04:18:09;5.87;;;2.10;;
51184;SDS011;37248;59.350;18.050;2023-05-16T04:20:34;9.00;;;2.20;;
51184;SDS011;37248;59.350;18.050;2023-05-16T04:23:00;7.47;;;2.15;;
51184;SDS011;37248;59.350;18.050;2023-05-16T04:25:26;13.70;;;2.47;;
51184;SDS011;37248;59.350;18.050;2023-05-16T04:27:51;8.47;;;2.23;;
51184;SDS011;37248;59.350;18.050;2023-05-16T04:30:16;4.23;;;2.20;;
51184;SDS011;37248;59.350;18.050;2023-05-16T04:32:42;11.57;;;2.23;;
51184;SDS011;37248;59.350;18.050;2023-05-16T04:35:07;6.17;;;1.97;;
51184;SDS011;37248;59.350;18.050;2023-05-16T04:37:33;5.68;;;2.03;;
51184;SDS011;37248;59.350;18.050;2023-05-16T04:39:58;7.53;;;2.25;;
51184;SDS011;37248;59.350;18.050;2023-05-16T04:42:24;4.50;;;1.83;;
51184;SDS011;37248;59.350;18.050;2023-05-16T04:44:49;7.07;;;1.90;;
51184;SDS011;37248;59.350;18.050;2023-05-16T04:47:14;7.67;;;2.10;;
51184;SDS011;37248;59.350;18.050;2023-05-16T04:49:40;7.77;;;2.33;;
51184;SDS011;37248;59.350;18.050;2023-05-16T04:52:05;5.63;;;1.80;;
51184;SDS011;37248;59.350;18.050;2023-05-16T04:54:32;5.55;;;2.08;;
51184;SDS011;37248;59.350;18.050;2023-05-16T04:56:57;5.47;;;2.03;;
51184;SDS011;37248;59.350;18.050;2023-05-16T04:59:23;10.03;;;2.23;;
51184;SDS011;37248;59.350;18.050;2023-05-16T05:01:48;6.70;;;2.22;;
51184;SDS011;37248;59.350;18.050;2023-05-16T05:04:14;4.43;;;1.83;;
51184;SDS011;37248;59.350;18.050;2023-05-16T05:06:39;3.30;;;2.20;;
51184;SDS011;37248;59.350;18.050;2023-05-16T05:09:05;4.03;;;2.05;;
51184;SDS011;37248;59.350;18.050;2023-05-16T05:11:31;7.35;;;1.92;;
51184;SDS011;37248;59.350;18.050;2023-05-16T05:13:56;7.57;;;2.30;;
51184;SDS011;37248;59.350;18.050;2023-05-16T05:16:21;7.10;;;2.57;;
51184;SDS011;37248;59.350;18.050;2023-05-16T05:18:46;10.52;;;2.58;;
51184;SDS011;37248;59.350;18.050;2023-05-16T05:21:12;9.73;;;2.50;;
51184;SDS011;37248;59.350;18.050;2023-05-16T05:23:37;6.17;;;2.80;;
51184;SDS011;37248;59.350;18.050;2023-05-16T05:26:02;8.70;;;2.53;;
51184;SDS011;37248;59.350;18.050;2023-05-16T05:28:27;5.57;;;2.67;;
51184;SDS011;37248;59.350;18.050;2023-05-16T05:30:53;6.30;;;2.70;;
51184;SDS011;37248;59.350;18.050;2023-05-16T05:33:18;12.93;;;2.80;;
51184;SDS011;37248;59.350;18.050;2023-05-16T05:35:43;11.97;;;2.20;;
51184;SDS011;37248;59.350;18.050;2023-05-16T05:38:09;18.50;;;3.47;;
51184;SDS011;37248;59.350;18.050;2023-05-16T05:40:34;46.97;;;5.47;;
51184;SDS011;37248;59.350;18.050;2023-05-16T05:42:59;46.33;;;6.17;;
51184;SDS011;37248;59.350;18.050;2023-05-16T05:45:25;51.40;;;5.73;;
51184;SDS011;37248;59.350;18.050;2023-05-16T05:47:50;30.80;;;5.00;;
51184;SDS011;37248;59.350;18.050;2023-05-16T05:50:15;54.77;;;5.47;;
51184;SDS011;37248;59.350;18.050;2023-05-16T05:52:41;27.30;;;4.82;;
51184;SDS011;37248;59.350;18.050;2023-05-16T05:55:06;23.47;;;4.77;;
51184;SDS011;37248;59.350;18.050;2023-05-16T05:57:32;23.98;;;4.00;;
51184;SDS011;37248;59.350;18.050;2023-05-16T05:59:57;36.43;;;4.60;;
51184;SDS011;37248;59.350;18.050;2023-05-16T06:02:22;22.70;;;3.85;;
51184;SDS011;37248;59.350;18.050;2023-05-16T06:04:47;22.93;;;4.20;;
51184;SDS011;37248;59.350;18.050;2023-05-16T06:07:12;16.35;;;3.70;;
51184;SDS011;37248;59.350;18.050;2023-05-16T06:09:40;14.40;;;3.83;;
51184;SDS011;37248;59.350;18.050;2023-05-16T06:12:06;17.85;;;3.75;;
51184;SDS011;37248;59.350;18.050;2023-05-16T06:14:32;13.57;;;3.43;;
51184;SDS011;37248;59.350;18.050;2023-05-16T06:16:57;11.97;;;3.30;;
51184;SDS011;37248;59.350;18.050;2023-05-16T06:19:22;19.57;;;3.70;;
51184;SDS011;37248;59.350;18.050;2023-05-16T06:21:47;12.17;;;3.20;;
51184;SDS011;37248;59.350;18.050;2023-05-16T06:24:13;11.60;;;3.10;;
51184;SDS011;37248;59.350;18.050;2023-05-16T06:26:38;9.52;;;3.13;;
51184;SDS011;37248;59.350;18.050;2023-05-16T06:29:03;18.33;;;3.17;;
51184;SDS011;37248;59.350;18.050;2023-05-16T06:31:29;17.67;;;3.43;;
51184;SDS011;37248;59.350;18.050;2023-05-16T06:33:55;12.75;;;2.88;;
51184;SDS011;37248;59.350;18.050;2023-05-16T06:36:20;7.97;;;3.07;;
51184;SDS011;37248;59.350;18.050;2023-05-16T06:38:46;14.27;;;3.33;;
51184;SDS011;37248;59.350;18.050;2023-05-16T06:41:11;8.83;;;3.03;;
51184;SDS011;37248;59.350;18.050;2023-05-16T06:43:36;8.60;;;2.90;;
51184;SDS011;37248;59.350;18.050;2023-05-16T06:46:01;9.47;;;3.10;;
51184;SDS011;37248;59.350;18.050;2023-05-16T06:48:27;10.98;;;3.03;;
51184;SDS011;37248;59.350;18.050;2023-05-16T06:50:53;5.47;;;2.80;;
51184;SDS011;37248;59.350;18.050;2023-05-16T06:53:18;10.77;;;3.07;;
51184;SDS011;37248;59.350;18.050;2023-05-16T06:55:44;4.27;;;2.93;;
51184;SDS011;37248;59.350;18.050;2023-05-16T06:58:10;12.13;;;2.97;;
51184;SDS011;37248;59.350;18.050;2023-05-16T07:00:35;5.38;;;3.22;;
51184;SDS011;37248;59.350;18.050;2023-05-16T07:03:00;7.87;;;3.00;;
51184;SDS011;37248;59.350;18.050;2023-05-16T07:05:26;8.67;;;2.97;;
51184;SDS011;37248;59.350;18.050;2023-05-16T07:07:51;6.50;;;3.30;;
51184;SDS011;37248;59.350;18.050;2023-05-16T07:10:16;4.80;;;3.00;;
51184;SDS011;37248;59.350;18.050;2023-05-16T07:12:42;4.03;;;2.83;;
51184;SDS011;37248;59.350;18.050;2023-05-16T07:15:07;6.27;;;3.07;;
51184;SDS011;37248;59.350;18.050;2023-05-16T07:17:33;6.38;;;3.28;;
51184;SDS011;37248;59.350;18.050;2023-05-16T07:19:58;7.13;;;3.30;;
51184;SDS011;37248;59.350;18.050;2023-05-16T07:22:23;6.60;;;3.20;;
51184;SDS011;37248;59.350;18.050;2023-05-16T07:24:48;8.40;;;2.97;;
51184;SDS011;37248;59.350;18.050;2023-05-16T07:27:14;5.80;;;3.20;;
51184;SDS011;37248;59.350;18.050;2023-05-16T07:29:39;5.20;;;3.47;;
51184;SDS011;37248;59.350;18.050;2023-05-16T07:32:05;8.20;;;3.10;;
51184;SDS011;37248;59.350;18.050;2023-05-16T07:34:30;6.77;;;2.93;;
51184;SDS011;37248;59.350;18.050;2023-05-16T07:36:55;8.23;;;3.50;;
51184;SDS011;37248;59.350;18.050;2023-05-16T07:39:21;5.13;;;3.20;;
51184;SDS011;37248;59.350;18.050;2023-05-16T07:41:46;7.60;;;3.33;;
51184;SDS011;37248;59.350;18.050;2023-05-16T07:44:11;4.63;;;2.90;;
51184;SDS011;37248;59.350;18.050;2023-05-16T07:46:37;5.70;;;3.27;;
51184;SDS011;37248;59.350;18.050;2023-05-16T07:49:02;6.07;;;3.57;;
51184;SDS011;37248;59.350;18.050;2023-05-16T07:51:27;4.63;;;2.83;;
51184;SDS011;37248;59.350;18.050;2023-05-16T07:53:52;6.23;;;3.00;;
51184;SDS011;37248;59.350;18.050;2023-05-16T07:56:18;4.53;;;3.00;;
51184;SDS011;37248;59.350;18.050;2023-05-16T07:58:43;4.50;;;3.00;;
51184;SDS011;37248;59.350;18.050;2023-05-16T08:01:09;4.72;;;3.25;;
51184;SDS011;37248;59.350;18.050;2023-05-16T08:03:34;3.50;;;2.83;;
51184;SDS011;37248;59.350;18.050;2023-05-16T08:06:00;3.83;;;2.70;;
51184;SDS011;37248;59.350;18.050;2023-05-16T08:08:25;3.67;;;2.80;;
51184;SDS011;37248;59.350;18.050;2023-05-16T08:10:50;3.17;;;2.70;;
51184;SDS011;37248;59.350;18.050;2023-05-16T08:13:16;4.63;;;3.00;;
51184;SDS011;37248;59.350;18.050;2023-05-16T08:15:41;6.03;;;2.93;;
51184;SDS011;37248;59.350;18.050;2023-05-16T08:18:11;4.00;;;2.70;;
51184;SDS011;37248;59.350;18.050;2023-05-16T08:20:37;3.75;;;2.70;;
51184;SDS011;37248;59.350;18.050;2023-05-16T08:23:02;4.20;;;2.55;;
51184;SDS011;37248;59.350;18.050;2023-05-16T08:25:27;3.80;;;2.50;;
51184;SDS011;37248;59.350;18.050;2023-05-16T08:27:53;3.60;;;2.57;;
51184;SDS011;37248;59.350;18.050;2023-05-16T08:30:18;3.37;;;2.57;;
51184;SDS011;37248;59.350;18.050;2023-05-16T08:32:44;3.60;;;2.70;;
51184;SDS011;37248;59.350;18.050;2023-05-16T08:35:09;6.63;;;2.67;;
51184;SDS011;37248;59.350;18.050;2023-05-16T08:37:35;3.30;;;2.40;;
51184;SDS011;37248;59.350;18.050;2023-05-16T08:40:00;3.13;;;2.30;;
51184;SDS011;37248;59.350;18.050;2023-05-16T08:42:26;2.77;;;2.47;;
51184;SDS011;37248;59.350;18.050;2023-05-16T08:44:51;4.73;;;2.50;;
51184;SDS011;37248;59.350;18.050;2023-05-16T08:47:17;3.70;;;2.40;;
51184;SDS011;37248;59.350;18.050;2023-05-16T08:49:43;2.73;;;2.20;;
51184;SDS011;37248;59.350;18.050;2023-05-16T08:52:11;6.65;;;2.67;;
51184;SDS011;37248;59.350;18.050;2023-05-16T08:54:37;18.63;;;2.60;;
51184;SDS011;37248;59.350;18.050;2023-05-16T08:57:03;11.32;;;2.65;;
51184;SDS011;37248;59.350;18.050;2023-05-16T08:59:29;5.82;;;2.30;;
51184;SDS011;37248;59.350;18.050;2023-05-16T09:01:55;4.28;;;2.58;;
51184;SDS011;37248;59.350;18.050;2023-05-16T09:04:21;4.72;;;2.50;;
51184;SDS011;37248;59.350;18.050;2023-05-16T09:06:50;4.88;;;2.45;;
51184;SDS011;37248;59.350;18.050;2023-05-16T09:09:16;6.28;;;2.55;;
51184;SDS011;37248;59.350;18.050;2023-05-16T09:11:41;5.10;;;2.50;;
51184;SDS011;37248;59.350;18.050;2023-05-16T09:14:06;3.73;;;2.07;;
51184;SDS011;37248;59.350;18.050;2023-05-16T09:16:31;8.20;;;2.30;;
51184;SDS011;37248;59.350;18.050;2023-05-16T09:18:57;10.77;;;2.43;;
51184;SDS011;37248;59.350;18.050;2023-05-16T09:21:27;4.03;;;2.10;;
51184;SDS011;37248;59.350;18.050;2023-05-16T09:23:53;5.88;;;2.13;;
51184;SDS011;37248;59.350;18.050;2023-05-16T09:26:18;4.97;;;2.40;;
51184;SDS011;37248;59.350;18.050;2023-05-16T09:28:44;3.03;;;2.13;;
51184;SDS011;37248;59.350;18.050;2023-05-16T09:31:23;3.07;;;1.97;;
51184;SDS011;37248;59.350;18.050;2023-05-16T09:33:50;2.37;;;2.00;;
51184;SDS011;37248;59.350;18.050;2023-05-16T09:36:16;4.37;;;2.13;;
51184;SDS011;37248;59.350;18.050;2023-05-16T09:38:41;4.10;;;1.97;;
51184;SDS011;37248;59.350;18.050;2023-05-16T09:41:08;2.75;;;1.70;;
51184;SDS011;37248;59.350;18.050;2023-05-16T09:43:33;3.83;;;2.00;;
51184;SDS011;37248;59.350;18.050;2023-05-16T09:46:02;4.40;;;1.85;;
51184;SDS011;37248;59.350;18.050;2023-05-16T09:48:28;4.83;;;1.80;;
51184;SDS011;37248;59.350;18.050;2023-05-16T09:50:53;7.33;;;2.13;;
51184;SDS011;37248;59.350;18.050;2023-05-16T09:53:25;5.57;;;2.20;;
51184;SDS011;37248;59.350;18.050;2023-05-16T09:56:24;6.00;;;2.38;;
51184;SDS011;37248;59.350;18.050;2023-05-16T09:58:43;5.88;;;2.10;;
51184;SDS011;37248;59.350;18.050;2023-05-16T10:01:09;7.32;;;2.20;;
51184;SDS011;37248;59.350;18.050;2023-05-16T10:03:36;7.43;;;2.00;;
51184;SDS011;37248;59.350;18.050;2023-05-16T10:06:02;6.00;;;2.20;;
51184;SDS011;37248;59.350;18.050;2023-05-16T10:08:27;4.30;;;2.00;;
51184;SDS011;37248;59.350;18.050;2023-05-16T10:10:54;7.15;;;2.17;;
51184;SDS011;37248;59.350;18.050;2023-05-16T10:13:20;4.40;;;2.10;;
51184;SDS011;37248;59.350;18.050;2023-05-16T10:15:45;4.07;;;2.10;;
51184;SDS011;37248;59.350;18.050;2023-05-16T10:18:11;4.80;;;2.08;;
51184;SDS011;37248;59.350;18.050;2023-05-16T10:20:39;3.78;;;1.73;;
51184;SDS011;37248;59.350;18.050;2023-05-16T10:23:05;5.47;;;1.85;;
51184;SDS011;37248;59.350;18.050;2023-05-16T10:25:31;4.60;;;1.80;;
51184;SDS011;37248;59.350;18.050;2023-05-16T10:27:58;5.95;;;1.70;;
51184;SDS011;37248;59.350;18.050;2023-05-16T10:30:23;4.00;;;1.80;;
51184;SDS011;37248;59.350;18.050;2023-05-16T10:32:49;6.03;;;1.80;;
51184;SDS011;37248;59.350;18.050;2023-05-16T10:35:15;3.88;;;1.90;;
51184;SDS011;37248;59.350;18.050;2023-05-16T10:37:41;5.17;;;1.83;;
51184;SDS011;37248;59.350;18.050;2023-05-16T10:40:06;2.73;;;1.60;;
51184;SDS011;37248;59.350;18.050;2023-05-16T10:42:32;5.20;;;1.80;;
51184;SDS011;37248;59.350;18.050;2023-05-16T10:45:19;3.47;;;1.90;;
51184;SDS011;37248;59.350;18.050;2023-05-16T10:53:12;3.88;;;1.88;;
51184;SDS011;37248;59.350;18.050;2023-05-16T10:55:38;3.92;;;1.73;;
51184;SDS011;37248;59.350;18.050;2023-05-16T10:58:03;3.70;;;1.60;;
51184;SDS011;37248;59.350;18.050;2023-05-16T11:00:29;3.80;;;1.90;;
51184;SDS011;37248;59.350;18.050;2023-05-16T11:02:54;3.83;;;1.60;;
51184;SDS011;37248;59.350;18.050;2023-05-16T11:05:28;5.43;;;1.73;;
51184;SDS011;37248;59.350;18.050;2023-05-16T11:08:04;3.43;;;1.63;;
51184;SDS011;37248;59.350;18.050;2023-05-16T11:10:30;3.03;;;1.77;;
51184;SDS011;37248;59.350;18.050;2023-05-16T11:12:55;2.73;;;1.47;;
51184;SDS011;37248;59.350;18.050;2023-05-16T11:15:26;2.67;;;1.70;;
51184;SDS011;37248;59.350;18.050;2023-05-16T11:20:36;2.83;;;1.33;;
51184;SDS011;37248;59.350;18.050;2023-05-16T11:25:41;3.13;;;1.70;;
51184;SDS011;37248;59.350;18.050;2023-05-16T11:28:07;2.38;;;1.30;;
51184;SDS011;37248;59.350;18.050;2023-05-16T11:30:33;2.10;;;1.40;;
51184;SDS011;37248;59.350;18.050;2023-05-16T11:32:58;3.00;;;1.53;;
51184;SDS011;37248;59.350;18.050;2023-05-16T11:35:23;2.37;;;1.60;;
51184;SDS011;37248;59.350;18.050;2023-05-16T11:37:49;2.20;;;1.40;;
51184;SDS011;37248;59.350;18.050;2023-05-16T11:40:15;2.53;;;1.40;;
51184;SDS011;37248;59.350;18.050;2023-05-16T11:42:45;2.10;;;1.50;;
51184;SDS011;37248;59.350;18.050;2023-05-16T11:45:11;2.22;;;1.50;;
51184;SDS011;37248;59.350;18.050;2023-05-16T11:47:39;1.77;;;1.40;;
51184;SDS011;37248;59.350;18.050;2023-05-16T11:50:14;1.57;;;1.47;;
51184;SDS011;37248;59.350;18.050;2023-05-16T11:52:41;3.00;;;1.40;;
51184;SDS011;37248;59.350;18.050;2023-05-16T11:55:07;2.10;;;1.20;;
51184;SDS011;37248;59.350;18.050;2023-05-16T11:57:35;1.98;;;1.50;;
51184;SDS011;37248;59.350;18.050;2023-05-16T12:00:04;2.13;;;1.57;;
51184;SDS011;37248;59.350;18.050;2023-05-16T12:02:31;3.17;;;1.63;;
51184;SDS011;37248;59.350;18.050;2023-05-16T12:04:57;2.53;;;1.53;;
51184;SDS011;37248;59.350;18.050;2023-05-16T12:07:26;3.10;;;1.40;;
51184;SDS011;37248;59.350;18.050;2023-05-16T12:09:52;3.83;;;1.70;;
51184;SDS011;37248;59.350;18.050;2023-05-16T12:12:19;2.03;;;1.58;;
51184;SDS011;37248;59.350;18.050;2023-05-16T12:14:44;2.33;;;1.70;;
51184;SDS011;37248;59.350;18.050;2023-05-16T12:17:09;2.00;;;1.60;;
51184;SDS011;37248;59.350;18.050;2023-05-16T12:19:35;2.60;;;1.70;;
51184;SDS011;37248;59.350;18.050;2023-05-16T12:22:00;2.30;;;1.60;;
51184;SDS011;37248;59.350;18.050;2023-05-16T12:24:28;2.87;;;2.03;;
51184;SDS011;37248;59.350;18.050;2023-05-16T12:26:54;3.50;;;1.83;;
51184;SDS011;37248;59.350;18.050;2023-05-16T12:29:20;2.42;;;1.70;;
51184;SDS011;37248;59.350;18.050;2023-05-16T12:31:51;2.80;;;1.90;;
51184;SDS011;37248;59.350;18.050;2023-05-16T12:34:17;3.33;;;1.85;;
51184;SDS011;37248;59.350;18.050;2023-05-16T12:36:42;4.00;;;1.98;;
51184;SDS011;37248;59.350;18.050;2023-05-16T12:39:10;2.13;;;1.67;;
51184;SDS011;37248;59.350;18.050;2023-05-16T12:41:39;2.80;;;2.00;;
51184;SDS011;37248;59.350;18.050;2023-05-16T12:46:41;2.50;;;2.00;;
51184;SDS011;37248;59.350;18.050;2023-05-16T12:49:06;4.15;;;2.22;;
51184;SDS011;37248;59.350;18.050;2023-05-16T12:51:32;2.10;;;1.77;;
51184;SDS011;37248;59.350;18.050;2023-05-16T12:54:05;2.20;;;1.80;;
51184;SDS011;37248;59.350;18.050;2023-05-16T12:56:31;3.53;;;2.10;;
51184;SDS011;37248;59.350;18.050;2023-05-16T12:58:56;2.30;;;1.80;;
51184;SDS011;37248;59.350;18.050;2023-05-16T13:01:21;2.80;;;2.00;;
51184;SDS011;37248;59.350;18.050;2023-05-16T13:03:46;3.07;;;2.30;;
51184;SDS011;37248;59.350;18.050;2023-05-16T13:06:12;3.10;;;2.00;;
51184;SDS011;37248;59.350;18.050;2023-05-16T13:08:37;3.17;;;2.13;;
51184;SDS011;37248;59.350;18.050;2023-05-16T13:11:02;2.27;;;2.00;;
51184;SDS011;37248;59.350;18.050;2023-05-16T13:13:27;2.73;;;2.03;;
51184;SDS011;37248;59.350;18.050;2023-05-16T13:15:53;2.30;;;2.10;;
51184;SDS011;37248;59.350;18.050;2023-05-16T13:18:18;2.80;;;2.43;;
51184;SDS011;37248;59.350;18.050;2023-05-16T13:20:43;3.40;;;2.53;;
51184;SDS011;37248;59.350;18.050;2023-05-16T13:23:09;2.97;;;2.40;;
51184;SDS011;37248;59.350;18.050;2023-05-16T13:25:34;3.10;;;2.30;;
51184;SDS011;37248;59.350;18.050;2023-05-16T13:27:59;2.45;;;2.25;;
51184;SDS011;37248;59.350;18.050;2023-05-16T13:30:25;3.70;;;2.60;;
51184;SDS011;37248;59.350;18.050;2023-05-16T13:32:50;2.40;;;2.20;;
51184;SDS011;37248;59.350;18.050;2023-05-16T13:35:18;2.83;;;2.53;;
51184;SDS011;37248;59.350;18.050;2023-05-16T13:37:44;3.90;;;2.43;;
51184;SDS011;37248;59.350;18.050;2023-05-16T13:40:09;3.10;;;2.50;;
51184;SDS011;37248;59.350;18.050;2023-05-16T13:42:35;3.20;;;2.53;;
51184;SDS011;37248;59.350;18.050;2023-05-16T13:45:03;2.90;;;2.50;;
51184;SDS011;37248;59.350;18.050;2023-05-16T13:47:29;2.70;;;2.50;;
51184;SDS011;37248;59.350;18.050;2023-05-16T13:49:54;2.90;;;2.60;;
51184;SDS011;37248;59.350;18.050;2023-05-16T13:52:19;3.17;;;2.88;;
51184;SDS011;37248;59.350;18.050;2023-05-16T13:54:45;3.57;;;2.87;;
51184;SDS011;37248;59.350;18.050;2023-05-16T13:57:10;3.60;;;3.10;;
51184;SDS011;37248;59.350;18.050;2023-05-16T13:59:35;3.57;;;3.00;;
51184;SDS011;37248;59.350;18.050;2023-05-16T14:02:01;3.47;;;3.00;;
51184;SDS011;37248;59.350;18.050;2023-05-16T14:04:26;2.80;;;2.60;;
51184;SDS011;37248;59.350;18.050;2023-05-16T14:06:51;3.37;;;2.97;;
51184;SDS011;37248;59.350;18.050;2023-05-16T14:09:17;3.13;;;2.80;;
51184;SDS011;37248;59.350;18.050;2023-05-16T14:11:42;3.50;;;2.63;;
51184;SDS011;37248;59.350;18.050;2023-05-16T14:14:08;3.83;;;2.72;;
51184;SDS011;37248;59.350;18.050;2023-05-16T14:16:33;3.67;;;3.00;;
51184;SDS011;37248;59.350;18.050;2023-05-16T14:18:58;3.90;;;3.00;;
51184;SDS011;37248;59.350;18.050;2023-05-16T14:21:23;3.30;;;2.80;;
51184;SDS011;37248;59.350;18.050;2023-05-16T14:23:49;3.20;;;2.73;;
51184;SDS011;37248;59.350;18.050;2023-05-16T14:26:14;3.60;;;3.23;;
51184;SDS011;37248;59.350;18.050;2023-05-16T14:28:40;4.38;;;3.20;;
51184;SDS011;37248;59.350;18.050;2023-05-16T14:31:05;3.10;;;2.80;;
51184;SDS011;37248;59.350;18.050;2023-05-16T14:33:31;2.97;;;2.67;;
51184;SDS011;37248;59.350;18.050;2023-05-16T14:35:57;4.23;;;2.70;;
51184;SDS011;37248;59.350;18.050;2023-05-16T14:38:22;3.50;;;2.90;;
51184;SDS011;37248;59.350;18.050;2023-05-16T14:40:47;4.00;;;3.10;;
51184;SDS011;37248;59.350;18.050;2023-05-16T14:43:12;3.10;;;2.47;;
51184;SDS011;37248;59.350;18.050;2023-05-16T14:45:38;5.47;;;2.70;;
51184;SDS011;37248;59.350;18.050;2023-05-16T14:48:05;5.80;;;2.57;;
51184;SDS011;37248;59.350;18.050;2023-05-16T14:50:30;7.90;;;2.83;;